Time;durP1;ratioP1;P1;durP2;ratioP2;P2;SDS_P1;SDS_P2;PMS_P1;PMS_P2;Temp;Humidity;BMP_temperature;BMP_pressure;BME280_temperature;BME280_humidity;BME280_pressure;Samples;Min_cycle;Max_cycle;Signal;HPM_P1;HPM_P2
2022/05/30 00:01:46;;;;;;;21.13;13.50;;;16.10;99.90;;;;;;5677615;23;20055;-91
2022/05/30 00:08:46;;;;;;;22.48;13.70;;;15.80;99.90;;;;;;4951856;28;20395;-86
2022/05/30 00:11:30;;;;;;;23.65;12.43;;;15.60;99.90;;;;;;4957842;29;20098;-88
2022/05/30 00:14:09;;;;;;;26.77;13.48;;;15.70;99.90;;;;;;4945133;28;20488;-87
2022/05/30 00:22:34;;;;;;;19.38;12.55;;;15.90;99.90;;;;;;6085754;23;20029;-90
2022/05/30 00:25:03;;;;;;;20.45;13.00;;;15.60;99.90;;;;;;4957622;29;20039;-93
2022/05/30 00:34:11;;;;;;;25.30;13.57;;;15.60;99.90;;;;;;5352784;23;20040;-89
2022/05/30 00:36:39;;;;;;;20.50;12.43;;;15.60;99.90;;;;;;4932406;29;20094;-92
2022/05/30 00:39:09;;;;;;;23.40;13.13;;;15.70;99.90;;;;;;4951338;29;20070;-87
2022/05/30 00:41:38;;;;;;;21.40;12.07;;;15.70;99.90;;;;;;4959874;29;20047;-83
2022/05/30 00:44:05;;;;;;;24.00;12.57;;;15.90;99.90;;;;;;4944867;29;20047;-82
2022/05/30 00:49:38;;;;;;;18.65;11.98;;;15.90;99.90;;;;;;5396859;23;20423;-93
2022/05/30 00:52:08;;;;;;;18.77;11.63;;;16.00;99.90;;;;;;4942503;29;20098;-93
2022/05/30 00:55:03;;;;;;;18.47;11.63;;;15.90;99.90;;;;;;4926275;29;20051;-93
2022/05/30 00:57:35;;;;;;;18.08;11.05;;;15.70;99.90;;;;;;4934733;29;20050;-88
2022/05/30 01:00:29;;;;;;;17.58;11.38;;;15.60;99.90;;;;;;4972292;29;20109;-95
2022/05/30 01:08:57;;;;;;;;;;;15.80;99.90;;;;;;4941867;29;20118;-85
2022/05/30 01:14:58;;;;;;;17.88;11.35;;;15.90;99.90;;;;;;4940059;29;20051;-92
2022/05/30 01:17:26;;;;;;;19.98;11.52;;;15.80;99.90;;;;;;4940443;29;20424;-94
2022/05/30 01:20:07;;;;;;;20.20;12.05;;;15.90;99.90;;;;;;4925901;29;20892;-96
2022/05/30 01:29:01;;;;;;;22.75;13.20;;;15.70;99.90;;;;;;4942567;29;20058;-90
2022/05/30 01:34:47;;;;;;;21.60;11.75;;;15.60;99.90;;;;;;5127656;23;20048;-93
2022/05/30 01:37:16;;;;;;;12.23;8.80;;;15.60;99.90;;;;;;4940948;29;20142;-85
2022/05/30 01:40:34;;;;;;;17.17;8.73;;;15.50;99.90;;;;;;4954875;29;20089;-92
2022/05/30 01:48:45;;;;;;;12.77;8.77;;;15.30;99.90;;;;;;4936786;29;20498;-87
2022/05/30 01:51:15;;;;;;;13.60;8.68;;;15.40;99.90;;;;;;4923433;29;20051;-86
2022/05/30 01:53:43;;;;;;;12.77;8.68;;;15.40;99.90;;;;;;4923300;29;20054;-89
2022/05/30 01:56:10;;;;;;;16.30;8.55;;;15.40;99.90;;;;;;4939272;29;20176;-90
2022/05/30 01:58:38;;;;;;;15.98;9.00;;;15.50;99.90;;;;;;4924374;29;20051;-90
2022/05/30 02:01:31;;;;;;;17.45;9.52;;;15.60;99.90;;;;;;4955428;29;20047;-87
2022/05/30 02:03:58;;;;;;;16.20;9.13;;;15.70;99.90;;;;;;4935483;29;20436;-91
2022/05/30 02:06:26;;;;;;;19.67;9.30;;;15.70;99.90;;;;;;4924805;29;20400;-92
2022/05/30 02:15:16;;;;;;;15.57;9.25;;;15.60;99.90;;;;;;4945181;29;20435;-91
2022/05/30 02:17:43;;;;;;;14.68;9.27;;;15.60;99.90;;;;;;4927620;29;20055;-87
2022/05/30 02:24:12;;;;;;;18.13;8.68;;;15.70;99.90;;;;;;4924945;29;20043;-85
2022/05/30 02:26:40;;;;;;;12.20;8.88;;;15.60;99.90;;;;;;4904556;29;20058;-86
2022/05/30 02:29:07;;;;;;;15.60;8.30;;;15.60;99.90;;;;;;4921726;29;20095;-89
2022/05/30 02:32:04;;;;;;;14.10;8.68;;;15.60;99.90;;;;;;4936389;29;20395;-85
2022/05/30 02:44:50;;;;;;;15.02;8.73;;;15.40;99.90;;;;;;5656953;23;20035;-84
2022/05/30 02:47:43;;;;;;;15.85;8.63;;;15.40;99.90;;;;;;4942920;28;20035;-91
2022/05/30 02:50:11;;;;;;;13.55;7.57;;;15.30;99.90;;;;;;4942608;28;20122;-89
2022/05/30 02:52:38;;;;;;;15.02;7.72;;;15.10;99.90;;;;;;4942604;28;20251;-85
2022/05/30 02:59:02;;;;;;;15.73;8.20;;;15.20;99.90;;;;;;5457464;23;20134;-88
2022/05/30 03:01:31;;;;;;;12.70;7.57;;;15.20;99.90;;;;;;4942715;28;20058;-86
2022/05/30 03:04:01;;;;;;;13.30;7.97;;;15.20;99.90;;;;;;4941341;28;20058;-86
2022/05/30 03:06:54;;;;;;;11.30;7.72;;;15.10;99.90;;;;;;4942641;28;20300;-91
2022/05/30 03:09:21;;;;;;;14.38;8.43;;;15.10;99.90;;;;;;4942765;28;20070;-84
2022/05/30 03:11:49;;;;;;;15.07;8.65;;;15.10;99.90;;;;;;4975203;28;20043;-87
2022/05/30 03:17:54;;;;;;;15.50;8.75;;;14.90;99.90;;;;;;5032189;23;20066;-92
2022/05/30 03:20:24;;;;;;;13.38;8.82;;;15.00;99.90;;;;;;4938785;29;20472;-87
2022/05/30 03:22:58;;;;;;;20.88;8.70;;;14.90;99.90;;;;;;4936666;29;20048;-88
2022/05/30 03:25:26;;;;;;;18.48;8.55;;;14.80;99.90;;;;;;4942160;29;20055;-90
2022/05/30 03:27:55;;;;;;;16.67;9.05;;;14.70;99.90;;;;;;4958711;29;20071;-85
2022/05/30 03:30:24;;;;;;;15.88;9.80;;;14.80;99.90;;;;;;4956986;29;20447;-87
2022/05/30 03:36:10;;;;;;;20.50;9.52;;;15.10;99.90;;;;;;4957336;29;20071;-86
2022/05/30 03:38:38;;;;;;;13.98;9.23;;;15.30;99.90;;;;;;4941011;29;20053;-86
2022/05/30 03:41:09;;;;;;;15.00;10.27;;;15.30;99.90;;;;;;4957351;29;20511;-85
2022/05/30 03:43:36;;;;;;;16.23;9.15;;;15.20;99.90;;;;;;4956324;29;20053;-83
2022/05/30 03:46:05;;;;;;;13.10;9.63;;;15.20;99.90;;;;;;5160419;23;20125;-82
2022/05/30 03:48:33;;;;;;;17.13;9.30;;;15.30;99.90;;;;;;4957348;29;20054;-83
2022/05/30 03:51:07;;;;;;;16.83;9.63;;;15.30;99.90;;;;;;4965516;29;20415;-84
2022/05/30 03:53:35;;;;;;;13.73;8.35;;;15.20;99.90;;;;;;4963838;29;20044;-84
2022/05/30 03:56:13;;;;;;;12.30;8.23;;;15.10;99.90;;;;;;4958132;29;20057;-93
2022/05/30 03:59:31;;;;;;;13.65;8.10;;;15.10;99.90;;;;;;4947274;29;20302;-88
2022/05/30 04:07:46;;;;;;;17.95;8.00;;;14.60;99.90;;;;;;4959012;28;20043;-83
2022/05/30 04:10:14;;;;;;;16.15;8.52;;;14.70;99.90;;;;;;4940929;29;20510;-85
2022/05/30 04:12:42;;;;;;;16.45;8.82;;;14.80;99.90;;;;;;4925873;29;20051;-92
2022/05/30 04:15:17;;;;;;;17.08;8.43;;;14.80;99.90;;;;;;4941814;28;20066;-85
2022/05/30 04:17:44;;;;;;;18.33;9.40;;;14.80;99.90;;;;;;4960608;28;20050;-89
2022/05/30 04:20:37;;;;;;;15.52;9.02;;;14.70;99.90;;;;;;4944784;28;20074;-87
2022/05/30 04:23:04;;;;;;;17.42;9.43;;;14.70;99.90;;;;;;4977235;28;20043;-88
2022/05/30 04:25:32;;;;;;;19.38;10.90;;;14.80;99.90;;;;;;4944390;28;20467;-91
2022/05/30 04:28:28;;;;;;;;;;;15.00;99.90;;;;;;4960505;28;20406;-87
2022/05/30 04:30:55;;;;;;;21.77;11.00;;;15.00;99.90;;;;;;4937590;29;19974;-83
2022/05/30 04:33:23;;;;;;;17.30;10.30;;;14.90;99.90;;;;;;4940805;29;20035;-89
2022/05/30 04:35:50;;;;;;;24.08;11.05;;;14.90;99.90;;;;;;4939865;29;20376;-91
2022/05/30 04:38:18;;;;;;;21.13;11.40;;;14.90;99.90;;;;;;4940537;29;20047;-85
2022/05/30 04:40:49;;;;;;;25.40;11.82;;;14.90;99.90;;;;;;4924585;29;20062;-90
2022/05/30 04:43:17;;;;;;;40.30;24.77;;;15.00;99.90;;;;;;4925734;29;20047;-78
2022/05/30 04:45:45;;;;;;;76.78;46.88;;;15.20;99.90;;;;;;4918822;29;20039;-84
2022/05/30 04:48:12;;;;;;;77.10;41.78;;;15.50;99.90;;;;;;4954538;29;20054;-83
2022/05/30 04:54:13;;;;;;;38.40;22.08;;;15.90;99.90;;;;;;4938017;28;20096;-82
2022/05/30 04:56:40;;;;;;;60.35;31.05;;;15.90;99.90;;;;;;4957672;28;20051;-83
2022/05/30 04:59:08;;;;;;;39.85;19.48;;;15.70;99.90;;;;;;4940851;28;20039;-83
2022/05/30 05:01:39;;;;;;;39.08;21.45;;;15.80;99.90;;;;;;4956926;28;20062;-84
2022/05/30 05:04:11;;;;;;;32.22;15.70;;;15.80;99.90;;;;;;4942667;28;20042;-84
2022/05/30 05:14:09;;;;;;;33.20;14.18;;;15.30;99.90;;;;;;4957030;28;20098;-84
2022/05/30 05:17:15;;;;;;;33.53;13.95;;;15.20;99.90;;;;;;4850522;29;20054;-82
2022/05/30 05:20:19;;;;;;;27.83;14.10;;;15.20;99.90;;;;;;4932984;28;20054;-85
2022/05/30 05:26:50;;;;;;;29.50;14.57;;;15.00;99.90;;;;;;4978959;28;20082;-91
2022/05/30 05:29:27;;;;;;;34.88;14.88;;;15.20;99.90;;;;;;4961042;28;20130;-89
2022/05/30 05:31:57;;;;;;;34.22;14.40;;;15.30;99.90;;;;;;4960658;28;20051;-89
2022/05/30 05:34:27;;;;;;;29.23;16.45;;;15.50;99.90;;;;;;4944134;28;20435;-91
2022/05/30 05:36:54;;;;;;;31.30;14.10;;;15.50;99.90;;;;;;4959672;28;20491;-89
2022/05/30 05:39:21;;;;;;;30.23;14.07;;;15.70;99.90;;;;;;4943148;28;20091;-87
2022/05/30 05:41:49;;;;;;;33.58;14.82;;;15.90;99.90;;;;;;4975732;28;20034;-92
2022/05/30 05:44:17;;;;;;;30.98;14.90;;;15.90;99.90;;;;;;4957387;28;20050;-91
2022/05/30 05:46:44;;;;;;;30.38;14.40;;;15.90;99.90;;;;;;4941308;28;20050;-84
2022/05/30 05:49:12;;;;;;;28.08;14.00;;;15.90;99.90;;;;;;4940134;28;20516;-88
2022/05/30 05:51:40;;;;;;;27.40;14.02;;;15.90;99.90;;;;;;4974409;28;20446;-86
2022/05/30 05:54:08;;;;;;;27.67;13.88;;;16.10;99.90;;;;;;4957631;28;20097;-88
2022/05/30 05:56:36;;;;;;;29.90;13.70;;;16.10;99.90;;;;;;4942956;28;20062;-91
2022/05/30 05:59:04;;;;;;;26.67;13.43;;;16.20;99.90;;;;;;4976167;28;20040;-86
2022/05/30 06:01:34;;;;;;;25.30;13.75;;;16.10;99.90;;;;;;4958707;28;20089;-89
2022/05/30 06:04:05;;;;;;;27.23;13.73;;;16.00;99.90;;;;;;4942296;28;20179;-84
2022/05/30 06:06:33;;;;;;;23.52;12.85;;;16.10;99.90;;;;;;4938361;29;20055;-82
2022/05/30 06:09:07;;;;;;;25.23;15.05;;;16.40;99.90;;;;;;4936490;29;20047;-84
2022/05/30 06:11:35;;;;;;;28.33;13.45;;;16.20;99.90;;;;;;4936817;29;20139;-82
2022/05/30 06:14:03;;;;;;;31.77;14.27;;;16.10;99.90;;;;;;4936632;29;20459;-81
2022/05/30 06:16:37;;;;;;;25.98;13.75;;;16.20;99.90;;;;;;4952851;29;20403;-85
2022/05/30 06:19:24;;;;;;;28.77;13.25;;;16.20;99.90;;;;;;4953670;29;20054;-79
2022/05/30 06:21:52;;;;;;;24.58;14.20;;;16.30;99.90;;;;;;4952708;29;20055;-82
2022/05/30 06:24:19;;;;;;;23.40;13.18;;;16.40;99.90;;;;;;4953902;29;20039;-80
2022/05/30 06:26:46;;;;;;;23.13;13.88;;;16.40;99.90;;;;;;4936836;29;20117;-80
2022/05/30 06:29:14;;;;;;;28.80;13.23;;;16.20;99.90;;;;;;4936492;29;20094;-81
2022/05/30 06:31:42;;;;;;;23.98;13.80;;;16.40;99.90;;;;;;4945717;29;20043;-78
2022/05/30 06:34:09;;;;;;;24.35;12.95;;;16.50;99.90;;;;;;4952179;29;20067;-80
2022/05/30 06:36:40;;;;;;;28.80;13.55;;;16.40;99.90;;;;;;4935331;29;20113;-79
2022/05/30 06:39:08;;;;;;;21.67;12.52;;;16.50;99.90;;;;;;4950019;29;20043;-79
2022/05/30 06:41:35;;;;;;;23.90;12.60;;;16.80;99.90;;;;;;4952063;29;20039;-81
2022/05/30 06:44:06;;;;;;;22.05;12.77;;;17.00;99.90;;;;;;4952349;29;20372;-78
2022/05/30 06:46:36;;;;;;;25.05;13.30;;;16.90;99.90;;;;;;4952430;29;20109;-81
2022/05/30 06:49:05;;;;;;;22.77;12.45;;;16.90;99.90;;;;;;4950585;29;20114;-81
2022/05/30 06:51:34;;;;;;;23.80;12.85;;;17.00;99.90;;;;;;4952472;29;20071;-82
2022/05/30 06:54:04;;;;;;;21.23;11.50;;;17.20;99.90;;;;;;4935044;29;20046;-82
2022/05/30 06:56:34;;;;;;;23.02;12.82;;;17.10;99.90;;;;;;4958634;28;20682;-80
2022/05/30 06:59:02;;;;;;;;;;;17.30;99.90;;;;;;4935502;29;20391;-81
2022/05/30 07:01:32;;;;;;;22.25;12.18;;;17.30;99.90;;;;;;4938606;29;20036;-80
2022/05/30 07:04:00;;;;;;;19.58;12.32;;;17.40;99.90;;;;;;4954693;29;20110;-80
2022/05/30 07:06:31;;;;;;;25.25;13.20;;;17.60;99.90;;;;;;4939028;29;20067;-80
2022/05/30 07:09:00;;;;;;;18.52;11.75;;;17.80;99.90;;;;;;4938427;29;20122;-83
2022/05/30 07:11:27;;;;;;;23.33;12.23;;;17.80;99.90;;;;;;4939438;29;20464;-80
2022/05/30 07:13:55;;;;;;;20.42;12.30;;;17.80;99.90;;;;;;4953554;29;20078;-78
2022/05/30 07:16:24;;;;;;;21.83;12.82;;;17.90;99.90;;;;;;4963284;28;20039;-79
2022/05/30 07:18:52;;;;;;;21.37;12.27;;;17.70;99.90;;;;;;4938620;29;20356;-80
2022/05/30 07:21:20;;;;;;;18.48;11.25;;;18.00;99.90;;;;;;4954066;29;20667;-81
2022/05/30 07:23:50;;;;;;;17.42;11.45;;;17.80;99.90;;;;;;4939036;29;20395;-81
2022/05/30 07:26:20;;;;;;;23.05;13.25;;;17.90;99.90;;;;;;4940034;29;20582;-78
2022/05/30 07:28:51;;;;;;;22.13;12.05;;;18.00;99.90;;;;;;4940222;29;20122;-79
2022/05/30 07:34:30;;;;;;;22.95;11.90;;;18.10;99.90;;;;;;4955896;29;20743;-79
2022/05/30 07:36:59;;;;;;;19.98;12.13;;;18.20;99.90;;;;;;4956877;29;20047;-80
2022/05/30 07:39:27;;;;;;;16.55;11.20;;;18.20;99.90;;;;;;4939459;29;20427;-77
2022/05/30 07:41:57;;;;;;;18.58;12.13;;;18.00;99.90;;;;;;4956770;29;20043;-80
2022/05/30 07:44:25;;;;;;;17.73;12.10;;;18.10;99.90;;;;;;4955532;29;20055;-78
2022/05/30 07:46:52;;;;;;;20.98;11.63;;;18.50;99.90;;;;;;4955682;29;20404;-78
2022/05/30 07:49:26;;;;;;;18.52;11.80;;;18.70;99.90;;;;;;4940130;29;20121;-77
2022/05/30 07:51:54;;;;;;;22.15;11.70;;;18.60;99.90;;;;;;4955260;29;20090;-77
2022/05/30 07:54:23;;;;;;;22.55;12.10;;;18.80;99.90;;;;;;4939078;29;20427;-78
2022/05/30 07:56:51;;;;;;;19.88;11.57;;;18.70;99.90;;;;;;4939576;29;20495;-80
2022/05/30 07:59:25;;;;;;;22.15;12.23;;;18.60;99.90;;;;;;4955858;29;20044;-78
2022/05/30 08:01:52;;;;;;;19.38;12.88;;;18.40;99.90;;;;;;4955974;29;20047;-78
2022/05/30 08:04:20;;;;;;;19.38;12.20;;;18.40;99.90;;;;;;4938992;29;20471;-78
2022/05/30 08:06:47;;;;;;;19.88;11.68;;;18.60;99.90;;;;;;4938935;29;20503;-77
2022/05/30 08:09:15;;;;;;;18.30;12.23;;;18.90;99.90;;;;;;4935456;29;20548;-76
2022/05/30 08:11:42;;;;;;;19.58;12.63;;;18.90;99.90;;;;;;4934200;29;20063;-81
2022/05/30 08:14:10;;;;;;;20.13;12.60;;;18.80;99.90;;;;;;4948301;29;20094;-80
2022/05/30 08:16:37;;;;;;;21.25;12.32;;;18.90;99.90;;;;;;4956052;29;20066;-83
2022/05/30 08:19:26;;;;;;;21.38;12.50;;;18.80;99.90;;;;;;4954508;29;20403;-80
2022/05/30 08:22:14;;;;;;;22.27;12.63;;;19.10;99.90;;;;;;4954949;29;20051;-85
2022/05/30 08:24:44;;;;;;;21.90;13.65;;;19.20;99.90;;;;;;4956235;29;20416;-81
2022/05/30 08:27:11;;;;;;;20.15;11.25;;;19.10;99.90;;;;;;4955796;29;20679;-82
2022/05/30 08:29:48;;;;;;;21.65;12.85;;;19.20;99.90;;;;;;4955161;29;20046;-79
2022/05/30 08:32:15;;;;;;;19.33;13.55;;;19.40;99.90;;;;;;4954385;29;20047;-80
2022/05/30 08:35:09;;;;;;;20.02;14.02;;;19.30;99.90;;;;;;4938916;29;20459;-82
2022/05/30 08:37:37;;;;;;;23.40;13.52;;;19.20;99.90;;;;;;4954329;29;20051;-83
2022/05/30 08:42:57;;;;;;;19.73;12.15;;;19.10;99.90;;;;;;4955408;29;20057;-79
2022/05/30 08:45:27;;;;;;;;;;;19.20;99.90;;;;;;4955731;29;20463;-82
2022/05/30 08:47:57;;;;;;;21.60;12.68;;;19.10;99.90;;;;;;4938531;29;19922;-81
2022/05/30 08:56:39;;;;;;;19.52;12.80;;;19.30;99.90;;;;;;5268945;23;20043;-81
2022/05/30 08:59:47;;;;;;;19.33;12.73;;;19.60;99.90;;;;;;4943456;28;20054;-80
2022/05/30 09:02:20;;;;;;;21.73;12.48;;;19.30;99.90;;;;;;4957687;28;20059;-84
2022/05/30 09:05:07;;;;;;;24.33;12.45;;;19.60;99.90;;;;;;4974129;28;20509;-83
2022/05/30 09:08:01;;;;;;;19.90;11.85;;;19.60;99.90;;;;;;4960159;28;20113;-83
2022/05/30 09:10:59;;;;;;;20.80;12.52;;;19.80;99.90;;;;;;4974462;28;20449;-84
2022/05/30 09:13:34;;;;;;;22.20;13.77;;;20.10;99.90;;;;;;4958158;28;20490;-84
2022/05/30 09:17:00;;;;;;;20.98;12.73;;;20.30;99.90;;;;;;4974311;28;20047;-83
2022/05/30 09:19:42;;;;;;;18.70;12.23;;;20.10;99.90;;;;;;4955165;28;20046;-81
2022/05/30 09:22:11;;;;;;;21.23;11.45;;;20.00;99.90;;;;;;4972475;28;20039;-81
2022/05/30 09:25:55;;;;;;;18.10;10.48;;;20.00;99.90;;;;;;4973259;28;20042;-81
2022/05/30 09:27:30;;;;;;;18.58;11.15;;;20.20;99.90;;;;;;4972734;28;20054;-83
2022/05/30 09:30:27;;;;;;;16.77;11.38;;;20.50;99.90;;;;;;4957067;28;20541;-83
2022/05/30 09:33:48;;;;;;;15.90;10.45;;;20.50;99.90;;;;;;4973583;28;20046;-82
2022/05/30 09:36:37;;;;;;;16.45;10.80;;;20.70;99.90;;;;;;4973959;28;20047;-81
2022/05/30 09:39:20;;;;;;;19.33;11.00;;;20.70;99.90;;;;;;4973611;28;20037;-82
2022/05/30 09:42:37;;;;;;;15.65;10.38;;;20.40;99.90;;;;;;4972163;28;20483;-81
2022/05/30 09:45:15;;;;;;;17.92;9.80;;;20.40;99.90;;;;;;4972484;28;20133;-81
2022/05/30 09:48:10;;;;;;;18.02;10.65;;;20.60;99.90;;;;;;4972526;28;20414;-82
2022/05/30 09:50:47;;;;;;;16.25;9.82;;;20.90;99.90;;;;;;4973593;28;20046;-79
2022/05/30 09:53:46;;;;;;;16.35;9.23;;;21.10;99.90;;;;;;4956425;28;20077;-80
2022/05/30 09:56:17;;;;;;;20.73;9.52;;;21.10;99.90;;;;;;4972656;28;20076;-77
2022/05/30 09:59:01;;;;;;;16.67;9.48;;;21.40;99.90;;;;;;4972537;28;20038;-80
2022/05/30 10:01:32;;;;;;;17.52;9.88;;;21.50;99.90;;;;;;4956968;28;20471;-75
2022/05/30 10:04:16;;;;;;;15.40;8.68;;;21.50;99.90;;;;;;4956979;28;20054;-74
2022/05/30 10:07:13;;;;;;;12.27;8.00;;;21.50;99.90;;;;;;4972110;28;20394;-77
2022/05/30 10:09:49;;;;;;;10.18;7.28;;;21.30;99.90;;;;;;4967905;28;20471;-76
2022/05/30 10:12:40;;;;;;;11.30;7.72;;;21.40;99.90;;;;;;4972969;28;20471;-81
2022/05/30 10:15:55;;;;;;;14.48;7.82;;;21.30;99.90;;;;;;4929668;28;20103;-76
2022/05/30 10:18:35;;;;;;;13.73;7.75;;;21.70;99.90;;;;;;4940378;28;20031;-84
2022/05/30 10:21:20;;;;;;;11.63;7.05;;;21.80;99.90;;;;;;4973222;28;20073;-84
2022/05/30 10:30:44;;;;;;;12.95;6.82;;;21.70;99.90;;;;;;4974591;28;20043;-88
2022/05/30 10:33:37;;;;;;;12.15;6.38;;;21.80;99.90;;;;;;4955895;28;20043;-79
2022/05/30 10:36:42;;;;;;;9.38;6.28;;;21.90;99.90;;;;;;4955813;28;20042;-78
2022/05/30 10:39:31;;;;;;;15.15;7.60;;;22.20;99.90;;;;;;4954889;28;20054;-79
2022/05/30 10:42:11;;;;;;;9.23;6.63;;;21.80;99.90;;;;;;4954211;28;20035;-80
2022/05/30 10:44:43;;;;;;;11.90;6.53;;;22.10;99.90;;;;;;4971360;28;20364;-79
2022/05/30 10:47:32;;;;;;;9.43;6.20;;;22.30;99.90;;;;;;4972262;28;20138;-81
2022/05/30 10:50:06;;;;;;;11.40;5.90;;;22.20;99.90;;;;;;4972263;28;20117;-81
2022/05/30 10:52:41;;;;;;;9.30;6.10;;;22.20;99.90;;;;;;4972672;28;20509;-82
2022/05/30 10:55:18;;;;;;;8.70;6.47;;;22.40;99.90;;;;;;4971802;28;20073;-80
2022/05/30 10:57:53;;;;;;;11.23;7.07;;;22.50;99.90;;;;;;4938984;28;20081;-76
2022/05/30 11:00:25;;;;;;;14.15;7.40;;;22.40;99.90;;;;;;4970863;28;20423;-76
2022/05/30 11:03:00;;;;;;;11.48;6.53;;;22.40;99.90;;;;;;4954375;28;20101;-80
2022/05/30 11:05:39;;;;;;;8.57;5.95;;;22.70;99.90;;;;;;4971880;28;20027;-81
2022/05/30 11:08:30;;;;;;;15.88;9.65;;;23.00;99.90;;;;;;4969370;28;20042;-74
2022/05/30 11:10:59;;;;;;;7.57;4.57;;;22.90;99.90;;;;;;4935472;28;20027;-79
2022/05/30 11:13:55;;;;;;;8.70;4.32;;;22.90;99.90;;;;;;4972057;28;20136;-82
2022/05/30 11:16:34;;;;;;;6.22;3.78;;;22.80;99.90;;;;;;4969267;28;20038;-81
2022/05/30 11:19:14;;;;;;;16.40;6.13;;;22.80;99.90;;;;;;4970715;28;20466;-80
2022/05/30 11:21:45;;;;;;;12.50;5.30;;;22.90;99.90;;;;;;4937142;28;20090;-81
2022/05/30 11:24:14;;;;;;;7.65;4.82;;;23.20;99.90;;;;;;4971995;28;20031;-82
2022/05/30 11:27:00;;;;;;;7.45;4.25;;;23.10;99.90;;;;;;4955187;28;20462;-80
2022/05/30 11:29:30;;;;;;;11.15;4.35;;;23.20;99.90;;;;;;4972560;28;20069;-82
2022/05/30 11:32:07;;;;;;;9.25;4.13;;;23.40;99.90;;;;;;4972266;28;20050;-81
2022/05/30 11:34:56;;;;;;;8.27;4.97;;;23.30;99.90;;;;;;4972362;28;20530;-84
2022/05/30 11:37:47;;;;;;;8.90;4.53;;;23.50;99.90;;;;;;4955049;28;20103;-83
2022/05/30 11:40:29;;;;;;;7.38;4.05;;;23.70;99.90;;;;;;4972628;28;20485;-80
2022/05/30 11:43:21;;;;;;;6.78;3.97;;;24.20;99.90;;;;;;4972188;28;20407;-83
2022/05/30 11:45:54;;;;;;;6.47;4.05;;;24.40;99.40;;;;;;4973439;28;20059;-79
2022/05/30 11:48:25;;;;;;;8.20;3.88;;;24.30;99.10;;;;;;4975559;28;20526;-78
2022/05/30 11:51:09;;;;;;;10.15;3.75;;;24.60;99.90;;;;;;4975505;28;20172;-81
2022/05/30 11:54:31;;;;;;;7.72;3.95;;;24.80;98.20;;;;;;4975494;28;20074;-80
2022/05/30 11:56:58;;;;;;;7.53;3.40;;;24.70;97.70;;;;;;4955068;28;20098;-74
2022/05/30 11:59:56;;;;;;;6.65;3.30;;;24.80;95.50;;;;;;4975167;28;20042;-78
2022/05/30 12:02:38;;;;;;;11.00;3.40;;;24.70;93.80;;;;;;4958129;28;20379;-77
2022/05/30 12:05:09;;;;;;;6.85;3.53;;;25.00;94.60;;;;;;4975453;28;20530;-77
2022/05/30 12:07:48;;;;;;;;;;;25.10;94.80;;;;;;4975709;28;20031;-79
2022/05/30 12:10:30;;;;;;;9.48;5.18;;;25.40;95.00;;;;;;4958284;28;20023;-77
2022/05/30 12:13:16;;;;;;;7.45;3.53;;;25.30;95.40;;;;;;4974952;28;20129;-76
2022/05/30 12:16:00;;;;;;;5.65;3.38;;;25.40;96.20;;;;;;4974634;28;20035;-77
2022/05/30 12:24:19;;;;;;;7.63;4.20;;;25.70;91.50;;;;;;4973852;28;20466;-79
2022/05/30 12:26:48;;;;;;;5.05;2.65;;;25.60;91.80;;;;;;4957334;28;20038;-78
2022/05/30 12:29:40;;;;;;;5.95;2.97;;;25.60;89.20;;;;;;4971646;28;20441;-80
2022/05/30 12:32:37;;;;;;;8.10;3.30;;;25.90;90.50;;;;;;4973442;28;20414;-81
2022/05/30 12:35:21;;;;;;;6.82;2.70;;;26.20;88.00;;;;;;4974261;28;20062;-81
2022/05/30 12:37:58;;;;;;;9.52;2.88;;;26.30;85.80;;;;;;4972550;28;20031;-81
2022/05/30 12:40:25;;;;;;;4.75;2.28;;;25.90;85.10;;;;;;4972392;28;20093;-80
2022/05/30 12:43:32;;;;;;;6.15;2.65;;;26.00;85.20;;;;;;4957394;28;20111;-81
2022/05/30 12:46:00;;;;;;;12.43;3.00;;;26.00;84.10;;;;;;4940290;28;20043;-79
2022/05/30 12:48:58;;;;;;;6.72;3.03;;;26.40;85.40;;;;;;4973144;28;20121;-77
2022/05/30 12:51:39;;;;;;;6.40;2.50;;;26.60;85.10;;;;;;4970910;28;20475;-79
2022/05/30 12:54:07;;;;;;;7.35;3.28;;;26.40;82.60;;;;;;4970800;28;20109;-81
2022/05/30 12:56:37;;;;;;;7.07;3.17;;;26.20;83.60;;;;;;4972593;28;20444;-79
2022/05/30 12:59:17;;;;;;;6.10;2.50;;;26.40;85.80;;;;;;4970088;28;20038;-76
2022/05/30 13:01:44;;;;;;;7.88;3.70;;;26.60;82.30;;;;;;4970526;28;20486;-74
2022/05/30 13:04:29;;;;;;;8.63;2.47;;;26.50;84.30;;;;;;4972757;28;20545;-78
2022/05/30 13:07:04;;;;;;;12.88;3.78;;;26.40;79.20;;;;;;4956020;28;20077;-79
2022/05/30 13:09:36;;;;;;;6.72;2.92;;;26.60;81.00;;;;;;4974243;28;20049;-81
2022/05/30 13:12:20;;;;;;;6.50;2.30;;;26.70;83.20;;;;;;4973787;28;20070;-80
2022/05/30 13:14:59;;;;;;;6.88;2.75;;;26.70;79.70;;;;;;4973674;28;20035;-80
2022/05/30 13:17:56;;;;;;;4.28;2.28;;;26.60;79.70;;;;;;4956913;28;20043;-79
2022/05/30 13:20:48;;;;;;;6.50;2.67;;;26.70;80.20;;;;;;4952433;28;20478;-79
2022/05/30 13:23:26;;;;;;;5.57;3.15;;;27.00;81.40;;;;;;4971806;28;20422;-80
2022/05/30 13:25:53;;;;;;;7.70;3.55;;;26.90;80.50;;;;;;4953866;28;20061;-76
2022/05/30 13:28:31;;;;;;;7.18;3.13;;;26.80;81.60;;;;;;4954726;28;20038;-79
2022/05/30 13:31:03;;;;;;;6.15;2.80;;;26.90;82.60;;;;;;4953738;28;20418;-78
2022/05/30 13:33:32;;;;;;;6.22;2.88;;;27.30;83.30;;;;;;4971509;28;20146;-78
2022/05/30 13:36:02;;;;;;;5.18;2.70;;;27.40;81.40;;;;;;4953699;28;20133;-79
2022/05/30 13:38:39;;;;;;;6.47;2.60;;;27.40;82.30;;;;;;4971987;28;20042;-81
2022/05/30 13:41:34;;;;;;;11.02;2.90;;;27.70;81.60;;;;;;4972813;28;20466;-82
2022/05/30 13:44:17;;;;;;;7.32;2.78;;;27.80;80.10;;;;;;4967537;28;20046;-80
2022/05/30 13:46:54;;;;;;;9.65;2.67;;;28.10;80.00;;;;;;4972219;28;20034;-81
2022/05/30 13:49:32;;;;;;;8.48;2.78;;;28.20;80.80;;;;;;4973284;28;20062;-78
2022/05/30 13:52:01;;;;;;;6.15;2.80;;;28.60;79.90;;;;;;4954998;28;20089;-82
2022/05/30 13:54:29;;;;;;;9.60;3.20;;;28.70;78.40;;;;;;4972722;28;20163;-78
2022/05/30 13:56:58;;;;;;;6.85;2.63;;;28.50;79.40;;;;;;4955685;28;20446;-81
2022/05/30 13:59:50;;;;;;;7.40;3.03;;;28.30;78.30;;;;;;4955685;28;20047;-77
2022/05/30 14:02:44;;;;;;;6.63;2.85;;;28.20;80.60;;;;;;4954617;28;20497;-77
2022/05/30 14:05:15;;;;;;;6.65;2.90;;;28.30;78.80;;;;;;4955816;28;20034;-79
2022/05/30 14:07:46;;;;;;;;;;;28.00;78.10;;;;;;4956400;28;20039;-79
2022/05/30 14:10:19;;;;;;;10.48;2.97;;;28.20;78.70;;;;;;4953859;28;19918;-78
2022/05/30 14:13:18;;;;;;;9.40;3.08;;;28.10;78.20;;;;;;4972373;28;20387;-79
2022/05/30 14:15:57;;;;;;;6.85;2.58;;;28.60;77.90;;;;;;4954573;28;20385;-77
2022/05/30 14:18:28;;;;;;;7.20;3.00;;;28.50;77.80;;;;;;4955701;28;20042;-76
2022/05/30 14:20:59;;;;;;;10.27;3.05;;;28.70;78.10;;;;;;4971608;28;20382;-81
2022/05/30 14:23:28;;;;;;;7.25;2.92;;;28.70;77.10;;;;;;4972823;28;20046;-76
2022/05/30 14:25:56;;;;;;;5.80;2.88;;;28.80;76.50;;;;;;4971692;28;20039;-77
2022/05/30 14:28:47;;;;;;;6.10;2.65;;;28.70;77.10;;;;;;4972665;28;20430;-78
2022/05/30 14:31:18;;;;;;;5.30;2.60;;;28.50;77.00;;;;;;4971239;28;20046;-76
2022/05/30 14:34:00;;;;;;;5.03;2.75;;;28.40;75.70;;;;;;4972687;28;20098;-79
2022/05/30 14:36:47;;;;;;;6.93;2.80;;;28.40;75.10;;;;;;4971333;28;20046;-79
2022/05/30 14:39:24;;;;;;;11.52;2.92;;;28.90;75.70;;;;;;4956686;28;20477;-78
2022/05/30 14:41:57;;;;;;;6.47;2.40;;;28.90;76.20;;;;;;4970026;28;20437;-77
2022/05/30 14:44:37;;;;;;;6.22;2.95;;;29.30;75.20;;;;;;4972460;28;20446;-77
2022/05/30 14:47:17;;;;;;;5.93;2.75;;;29.00;74.00;;;;;;4970712;28;20481;-82
2022/05/30 14:50:00;;;;;;;6.50;3.03;;;28.70;74.60;;;;;;4955333;28;20504;-82
2022/05/30 14:52:55;;;;;;;5.15;2.75;;;28.60;75.10;;;;;;4938744;28;20086;-79
2022/05/30 14:55:34;;;;;;;6.60;2.83;;;28.60;74.50;;;;;;4956977;28;20440;-80
2022/05/30 14:58:38;;;;;;;5.70;2.80;;;28.40;74.30;;;;;;4965483;28;20074;-82
2022/05/30 15:01:27;;;;;;;6.63;3.00;;;28.50;75.10;;;;;;4941199;28;20074;-80
2022/05/30 15:04:08;;;;;;;6.38;3.05;;;29.40;74.90;;;;;;4972065;28;20450;-81
2022/05/30 15:06:43;;;;;;;5.63;3.17;;;29.60;73.90;;;;;;4939393;28;20114;-78
2022/05/30 15:09:14;;;;;;;9.20;3.15;;;29.40;74.10;;;;;;4970379;28;20035;-74
2022/05/30 15:11:42;;;;;;;6.03;3.10;;;29.30;74.00;;;;;;4955087;28;20043;-74
2022/05/30 15:14:18;;;;;;;15.13;9.80;;;29.20;72.60;;;;;;4938882;28;20447;-76
2022/05/30 15:16:46;;;;;;;18.50;9.40;;;28.60;73.10;;;;;;4968911;28;20031;-75
2022/05/30 15:19:14;;;;;;;10.45;5.88;;;28.10;74.70;;;;;;4970671;28;20550;-75
2022/05/30 15:22:00;;;;;;;7.63;4.78;;;28.10;76.80;;;;;;4961604;28;20046;-75
2022/05/30 15:24:34;;;;;;;7.20;2.95;;;28.90;75.60;;;;;;4953511;28;20047;-75
2022/05/30 15:27:02;;;;;;;8.15;3.45;;;29.30;73.60;;;;;;4956730;28;20065;-73